createdAt,value
2022-08-16T00:02:12.769Z,70.37
2022-08-16T00:05:15.812Z,71.39
2022-08-16T00:08:36.795Z,71.35
2022-08-16T00:11:42.739Z,70.83
2022-08-16T00:14:45.074Z,71.71
2022-08-16T00:17:56.075Z,71.45
2022-08-16T00:20:59.546Z,72.99
2022-08-16T00:24:04.759Z,73.36
2022-08-16T00:27:08.521Z,73.08
2022-08-16T00:30:19.563Z,72.61
2022-08-16T00:33:30.750Z,72.49
2022-08-16T00:36:33.260Z,72.42
2022-08-16T00:39:36.499Z,72.19
2022-08-16T00:42:41.360Z,72.55
2022-08-16T00:45:57.853Z,72.61
2022-08-16T00:49:17.624Z,72.82
2022-08-16T00:52:29.631Z,71.99
2022-08-16T00:55:37.761Z,72.29
2022-08-16T00:58:44.022Z,71.48
2022-08-16T01:01:46.209Z,71.18
2022-08-16T01:05:10.371Z,70.25
2022-08-16T01:08:36.359Z,70.38
2022-08-16T01:11:54.133Z,70.17
2022-08-16T01:15:00.512Z,69.84
2022-08-16T01:18:05.961Z,69.44
2022-08-16T01:21:39.814Z,69.94
2022-08-16T01:24:54.150Z,69.30
2022-08-16T01:28:01.705Z,68.85
2022-08-16T01:31:08.353Z,69.33
2022-08-16T01:34:23.249Z,69.31
2022-08-16T01:37:37.601Z,68.94
2022-08-16T01:40:39.670Z,68.55
2022-08-16T01:43:44.122Z,69.33
2022-08-16T01:46:49.114Z,68.69
2022-08-16T01:50:42.110Z,68.94
2022-08-16T01:53:17.991Z,68.65
2022-08-16T01:56:40.168Z,68.25
2022-08-16T01:59:44.107Z,67.75
2022-08-16T02:02:53.800Z,68.05
2022-08-16T02:05:56.454Z,67.44
2022-08-16T02:09:00.226Z,67.85
2022-08-16T02:12:49.855Z,68.29
2022-08-16T02:15:42.274Z,67.81
2022-08-16T02:18:47.637Z,67.55
2022-08-16T02:22:09.186Z,67.70
2022-08-16T02:25:16.810Z,68.52
2022-08-16T02:28:20.021Z,68.03
2022-08-16T02:32:04.013Z,67.74
2022-08-16T02:34:47.667Z,67.89
2022-08-16T02:37:55.188Z,67.52
2022-08-16T02:41:02.829Z,67.16
2022-08-16T02:44:14.889Z,67.85
2022-08-16T02:47:25.394Z,67.22
2022-08-16T02:50:53.945Z,67.17
2022-08-16T02:53:50.819Z,67.30
2022-08-16T02:56:55.840Z,67.13
2022-08-16T03:00:00.198Z,67.79
2022-08-16T03:03:25.086Z,67.28
2022-08-16T03:06:42.085Z,67.55
2022-08-16T03:10:13.028Z,66.69
2022-08-16T03:13:23.508Z,67.63
2022-08-16T03:16:38.359Z,67.69
2022-08-16T03:19:48.391Z,66.99
2022-08-16T03:23:02.313Z,67.53
2022-08-16T03:26:05.371Z,67.98
2022-08-16T03:29:07.540Z,66.84
2022-08-16T03:32:10.118Z,67.38
2022-08-16T03:35:18.649Z,67.77
2022-08-16T03:38:32.627Z,67.20
2022-08-16T03:41:50.396Z,66.94
2022-08-16T03:45:03.511Z,66.95
2022-08-16T03:48:09.960Z,68.08
2022-08-16T03:51:25.332Z,66.91
2022-08-16T03:54:35.758Z,67.92
2022-08-16T03:57:40.613Z,67.88
2022-08-16T04:00:45.657Z,66.87
2022-08-16T04:03:52.880Z,67.07
2022-08-16T04:06:57.698Z,68.07
2022-08-16T04:10:00.140Z,67.71
2022-08-16T04:14:00.437Z,67.08
2022-08-16T04:16:45.064Z,67.33
2022-08-16T04:20:07.702Z,67.51
2022-08-16T04:23:26.286Z,67.75
2022-08-16T04:26:32.170Z,67.54
2022-08-16T04:29:43.808Z,67.66
2022-08-16T04:32:50.687Z,68.35
2022-08-16T04:35:56.922Z,68.38
2022-08-16T04:39:00.206Z,67.60
2022-08-16T04:42:11.450Z,66.93
2022-08-16T04:45:17.753Z,66.87
2022-08-16T04:48:21.881Z,67.29
2022-08-16T04:51:40.491Z,66.69
2022-08-16T04:54:43.875Z,67.64
2022-08-16T04:57:53.385Z,68.08
2022-08-16T05:00:56.175Z,67.82
2022-08-16T05:04:01.078Z,67.92
2022-08-16T05:07:15.011Z,67.53
2022-08-16T05:10:48.915Z,68.01
2022-08-16T05:13:51.933Z,66.75
2022-08-16T05:16:58.086Z,67.17
2022-08-16T05:20:01.231Z,66.48
2022-08-16T05:23:23.519Z,67.51
2022-08-16T05:26:28.909Z,67.08
2022-08-16T05:30:00.765Z,66.32
2022-08-16T05:32:55.533Z,66.44
2022-08-16T05:35:58.178Z,67.36
2022-08-16T05:39:09.746Z,66.37
2022-08-16T05:42:13.048Z,66.58
2022-08-16T05:45:23.263Z,66.76
2022-08-16T05:48:29.814Z,66.48
2022-08-16T05:51:39.091Z,65.90
2022-08-16T05:54:47.789Z,65.45
2022-08-16T05:58:00.525Z,66.21
2022-08-16T06:01:06.239Z,65.65
2022-08-16T06:04:36.374Z,66.14
2022-08-16T06:07:36.588Z,65.35
2022-08-16T06:11:02.661Z,65.89
2022-08-16T06:14:09.244Z,65.73
2022-08-16T06:17:16.429Z,66.35
2022-08-16T06:20:34.733Z,66.76
2022-08-16T06:23:48.221Z,66.10
2022-08-16T06:26:57.756Z,66.54
2022-08-16T06:30:08.290Z,65.83
2022-08-16T06:33:12.334Z,65.42
2022-08-16T06:36:16.582Z,66.55
2022-08-16T06:39:49.683Z,65.88
2022-08-16T06:43:15.751Z,66.46
2022-08-16T06:46:31.537Z,65.45
2022-08-16T06:49:37.525Z,65.39
2022-08-16T06:52:58.207Z,65.30
2022-08-16T06:56:14.382Z,65.98
2022-08-16T06:59:52.117Z,65.15
2022-08-16T07:03:00.339Z,64.59
2022-08-16T07:06:04.407Z,64.62
2022-08-16T07:09:13.442Z,64.44
2022-08-16T07:12:20.889Z,65.35
2022-08-16T07:15:50.169Z,64.68
2022-08-16T07:18:59.170Z,65.30
2022-08-16T07:22:36.539Z,64.78
2022-08-16T07:25:29.703Z,64.70
2022-08-16T07:28:32.261Z,64.72
2022-08-16T07:31:37.618Z,65.79
2022-08-16T07:34:48.487Z,64.80
2022-08-16T07:37:53.501Z,65.04
2022-08-16T07:41:09.728Z,64.82
2022-08-16T07:44:16.510Z,64.96
2022-08-16T07:47:24.662Z,66.31
2022-08-16T07:50:57.767Z,66.58
2022-08-16T07:54:02.682Z,65.98
2022-08-16T07:57:14.163Z,65.89
2022-08-16T08:00:21.191Z,65.92
2022-08-16T08:03:35.897Z,65.75
2022-08-16T08:06:45.245Z,66.13
2022-08-16T08:09:52.638Z,65.92
2022-08-16T08:12:59.338Z,66.07
2022-08-16T08:16:02.973Z,65.83
2022-08-16T08:19:10.620Z,66.81
2022-08-16T08:22:19.317Z,66.49
2022-08-16T08:25:53.386Z,67.08
2022-08-16T08:28:52.823Z,66.48
2022-08-16T08:31:57.161Z,67.39
2022-08-16T08:35:03.676Z,66.84
2022-08-16T08:38:08.959Z,67.63
2022-08-16T08:41:18.559Z,66.92
2022-08-16T08:44:28.442Z,66.56
2022-08-16T08:47:38.783Z,66.99
2022-08-16T08:50:42.406Z,67.19
2022-08-16T08:53:57.568Z,67.54
2022-08-16T08:57:05.992Z,68.25
2022-08-16T09:00:15.975Z,67.42
2022-08-16T09:03:23.342Z,67.38
2022-08-16T09:06:26.003Z,67.27
2022-08-16T09:09:33.643Z,67.82
2022-08-16T09:12:39.699Z,67.74
2022-08-16T09:15:49.278Z,68.37
2022-08-16T09:18:56.841Z,68.21
2022-08-16T09:22:02.112Z,67.97
2022-08-16T09:25:11.239Z,68.15
2022-08-16T09:29:13.342Z,69.11
2022-08-16T09:31:59.275Z,69.56
2022-08-16T09:35:02.454Z,69.00
2022-08-16T09:38:05.170Z,69.17
2022-08-16T09:41:14.697Z,69.93
2022-08-16T09:45:09.112Z,69.57
2022-08-16T09:47:57.671Z,70.82
2022-08-16T09:51:00.624Z,70.07
2022-08-16T09:54:04.924Z,69.85
2022-08-16T09:57:07.513Z,69.94
2022-08-16T10:00:44.247Z,70.15
2022-08-16T10:03:36.666Z,70.18
2022-08-16T10:06:39.046Z,70.01
2022-08-16T10:09:55.593Z,69.83
2022-08-16T10:13:16.349Z,70.17
2022-08-16T10:16:22.161Z,70.64
2022-08-16T10:19:24.639Z,70.67
2022-08-16T10:22:28.871Z,70.14
2022-08-16T10:27:16.137Z,70.47
2022-08-16T10:28:53.153Z,71.20
2022-08-16T10:31:55.230Z,72.12
2022-08-16T10:34:59.286Z,71.92
2022-08-16T10:38:01.594Z,71.60
2022-08-16T10:41:11.306Z,72.28
2022-08-16T10:44:18.429Z,72.76
2022-08-16T10:47:20.536Z,73.48
2022-08-16T10:50:22.702Z,73.61
2022-08-16T10:53:32.794Z,73.32
2022-08-16T10:56:52.834Z,71.38
2022-08-16T10:59:58.680Z,71.23
2022-08-16T11:03:05.194Z,72.04
2022-08-16T11:06:12.030Z,72.20
2022-08-16T11:09:25.594Z,71.04
2022-08-16T11:12:30.897Z,70.68
2022-08-16T11:15:35.281Z,70.48
2022-08-16T11:19:02.973Z,69.14
2022-08-16T11:22:39.324Z,69.75
2022-08-16T11:32:13.124Z,67.49
2022-08-16T11:38:55.781Z,67.16
2022-08-16T11:41:59.974Z,66.50
2022-08-16T11:45:02.173Z,65.69
2022-08-16T11:48:05.567Z,65.80
2022-08-16T11:51:07.544Z,65.29
2022-08-16T11:54:21.732Z,65.79
2022-08-16T11:57:24.448Z,65.16
2022-08-16T12:00:33.592Z,64.65
2022-08-16T12:03:51.052Z,64.66
2022-08-16T12:06:54.627Z,64.44
2022-08-16T12:09:57.076Z,64.31
2022-08-16T12:13:02.720Z,64.80
2022-08-16T12:16:09.259Z,64.40
2022-08-16T12:19:13.771Z,64.46
2022-08-16T12:22:18.953Z,64.33
2022-08-16T12:25:24.792Z,64.40
2022-08-16T12:28:52.105Z,64.68
2022-08-16T12:32:00.839Z,64.00
2022-08-16T12:35:07.557Z,64.18
2022-08-16T12:38:40.876Z,64.12
2022-08-16T12:41:34.781Z,64.08
2022-08-16T12:44:38.201Z,64.33
2022-08-16T12:48:22.546Z,63.79
2022-08-16T12:51:31.317Z,64.27
2022-08-16T12:54:55.067Z,63.83
2022-08-16T12:57:58.801Z,63.20
2022-08-16T13:01:02.793Z,63.81
2022-08-16T13:04:20.863Z,63.83
2022-08-16T13:07:27.132Z,63.73
2022-08-16T13:10:32.196Z,63.55
2022-08-16T13:13:40.220Z,63.09
2022-08-16T13:16:42.470Z,62.71
2022-08-16T13:23:12.693Z,62.93
2022-08-16T13:26:19.185Z,62.83
2022-08-16T13:29:21.377Z,62.56
2022-08-16T13:32:39.610Z,62.51
2022-08-16T13:35:56.245Z,62.78
2022-08-16T13:39:05.722Z,62.88
2022-08-16T13:42:12.232Z,62.73
2022-08-16T13:45:15.657Z,62.49
2022-08-16T13:48:24.995Z,62.95
2022-08-16T13:51:30.622Z,62.17
2022-08-16T13:54:33.148Z,62.55
2022-08-16T13:57:53.037Z,62.49
2022-08-16T14:00:55.791Z,63.02
2022-08-16T14:04:01.278Z,62.59
2022-08-16T14:07:05.645Z,62.82
2022-08-16T14:10:10.577Z,62.78
2022-08-16T14:13:19.767Z,62.73
2022-08-16T14:16:24.605Z,63.02
2022-08-16T14:19:35.911Z,63.22
2022-08-16T14:22:42.632Z,63.13
2022-08-16T14:25:54.261Z,63.08
2022-08-16T14:29:01.261Z,63.90
2022-08-16T14:32:07.417Z,63.40
2022-08-16T14:35:15.814Z,63.32
2022-08-16T14:38:23.943Z,64.08
2022-08-16T14:41:27.931Z,63.28
2022-08-16T14:44:30.205Z,63.81
2022-08-16T14:47:34.761Z,63.23
2022-08-16T14:50:37.194Z,63.91
2022-08-16T14:53:45.186Z,63.48
2022-08-16T14:56:54.659Z,63.48
2022-08-16T15:00:01.974Z,63.34
2022-08-16T15:03:10.762Z,63.79
2022-08-16T15:06:14.556Z,63.39
2022-08-16T15:09:17.166Z,63.33
2022-08-16T15:12:26.701Z,63.46
2022-08-16T15:15:33.286Z,63.25
2022-08-16T15:18:39.353Z,63.78
2022-08-16T15:21:42.319Z,63.62
2022-08-16T15:24:44.486Z,63.90
2022-08-16T15:27:55.161Z,63.23
2022-08-16T15:31:00.890Z,63.19
2022-08-16T15:34:05.128Z,63.81
2022-08-16T15:37:07.256Z,63.24
2022-08-16T15:40:26.598Z,63.83
2022-08-16T15:43:39.950Z,63.44
2022-08-16T15:46:57.102Z,63.40
2022-08-16T15:50:04.535Z,63.69
2022-08-16T15:53:16.589Z,63.77
2022-08-16T15:56:19.993Z,64.15
2022-08-16T15:59:27.195Z,63.58
2022-08-16T16:02:31.037Z,63.73
2022-08-16T16:05:34.125Z,63.84
2022-08-16T16:08:41.601Z,63.88
2022-08-16T16:11:46.151Z,63.98
2022-08-16T16:14:48.689Z,63.95
2022-08-16T16:17:54.324Z,64.98
2022-08-16T16:21:00.898Z,64.11
2022-08-16T16:24:21.431Z,64.18
2022-08-16T16:27:26.061Z,64.32
2022-08-16T16:30:37.721Z,64.84
2022-08-16T16:33:50.458Z,64.39
2022-08-16T16:36:52.946Z,65.41
2022-08-16T16:39:57.050Z,65.20
2022-08-16T16:43:00.895Z,64.91
2022-08-16T16:46:39.206Z,65.54
2022-08-16T16:49:27.995Z,66.07
2022-08-16T16:52:43.542Z,66.69
2022-08-16T16:55:51.853Z,66.78
2022-08-16T16:59:01.658Z,65.98
2022-08-16T17:02:41.656Z,67.74
2022-08-16T17:05:29.344Z,67.16
2022-08-16T17:08:35.314Z,67.60
2022-08-16T17:11:40.188Z,66.82
2022-08-16T17:14:42.841Z,67.43
2022-08-16T17:18:00.410Z,67.73
2022-08-16T17:21:05.771Z,67.94
2022-08-16T17:24:18.302Z,68.15
2022-08-16T17:27:32.373Z,68.61
2022-08-16T17:30:44.684Z,68.33
2022-08-16T17:33:55.077Z,68.64
2022-08-16T17:36:58.843Z,67.33
2022-08-16T17:40:06.019Z,67.27
2022-08-16T17:43:34.232Z,67.16
2022-08-16T17:46:50.802Z,67.40
2022-08-16T17:49:53.972Z,66.94
2022-08-16T17:52:57.053Z,66.33
2022-08-16T17:56:00.442Z,66.24
2022-08-16T17:59:02.589Z,67.39
2022-08-16T18:02:42.535Z,66.08
2022-08-16T18:05:29.794Z,66.46
2022-08-16T18:08:32.357Z,67.04
2022-08-16T18:11:40.980Z,67.30
2022-08-16T18:14:52.010Z,66.34
2022-08-16T18:17:56.608Z,66.50
2022-08-16T18:21:17.481Z,66.65
2022-08-16T18:24:19.791Z,67.46
2022-08-16T18:27:25.919Z,67.31
2022-08-16T18:30:28.948Z,67.34
2022-08-16T18:33:31.603Z,67.93
2022-08-16T18:36:34.710Z,67.83
2022-08-16T18:39:37.460Z,68.51
2022-08-16T18:42:39.515Z,68.06
2022-08-16T18:45:44.274Z,68.39
2022-08-16T18:48:46.378Z,68.36
2022-08-16T18:51:49.262Z,67.92
2022-08-16T18:55:01.865Z,68.37
2022-08-16T18:58:14.450Z,67.97
2022-08-16T19:01:16.728Z,68.73
2022-08-16T19:04:55.562Z,68.94
2022-08-16T19:07:41.399Z,68.36
2022-08-16T19:10:43.906Z,68.01
2022-08-16T19:13:46.565Z,69.06
2022-08-16T19:16:48.636Z,68.78
2022-08-16T19:19:50.698Z,69.09
2022-08-16T19:23:05.914Z,68.47
2022-08-16T19:26:24.456Z,69.19
2022-08-16T19:29:28.414Z,68.99
2022-08-16T19:32:30.507Z,68.65
2022-08-16T19:35:33.703Z,69.49
2022-08-16T19:38:36.244Z,69.47
2022-08-16T19:41:41.515Z,68.92
2022-08-16T19:44:45.550Z,68.72
2022-08-16T19:47:48.594Z,69.91
2022-08-16T19:50:56.577Z,68.89
2022-08-16T19:53:58.698Z,69.89
2022-08-16T19:57:01.326Z,70.17
2022-08-16T20:00:13.649Z,68.77
2022-08-16T20:03:20.227Z,68.77
2022-08-16T20:06:38.643Z,70.02
2022-08-16T20:09:41.667Z,69.97
2022-08-16T20:12:43.875Z,69.34
2022-08-16T20:16:04.413Z,69.21
2022-08-16T20:19:06.824Z,70.17
2022-08-16T20:22:42.149Z,70.33
2022-08-16T20:25:42.331Z,69.50
2022-08-16T20:28:54.674Z,70.44
2022-08-16T20:31:57.320Z,70.46
2022-08-16T20:35:00.588Z,70.29
2022-08-16T20:38:04.284Z,69.99
2022-08-16T20:41:06.416Z,69.90
2022-08-16T20:44:10.310Z,70.88
2022-08-16T20:47:12.563Z,70.13
2022-08-16T20:50:14.577Z,70.68
2022-08-16T20:53:16.654Z,70.33
2022-08-16T20:56:18.776Z,69.89
2022-08-16T20:59:20.993Z,70.34
2022-08-16T21:02:26.338Z,69.99
2022-08-16T21:05:31.755Z,70.13
2022-08-16T21:08:51.874Z,70.16
2022-08-16T21:11:58.936Z,71.10
2022-08-16T21:15:08.501Z,70.54
2022-08-16T21:18:10.707Z,71.35
2022-08-16T21:21:12.780Z,70.75
2022-08-16T21:24:15.285Z,71.28
2022-08-16T21:27:18.188Z,71.29
2022-08-16T21:30:24.014Z,71.08
2022-08-16T21:33:32.067Z,70.81
2022-08-16T21:36:36.167Z,71.00
2022-08-16T21:39:39.436Z,71.98
2022-08-16T21:42:42.609Z,72.20
2022-08-16T21:45:45.990Z,72.37
2022-08-16T21:48:48.373Z,72.46
2022-08-16T21:51:51.573Z,72.48
2022-08-16T21:54:56.161Z,71.82
2022-08-16T21:57:58.706Z,71.68
2022-08-16T22:01:01.962Z,70.92
2022-08-16T22:04:38.162Z,71.61
2022-08-16T22:07:26.605Z,70.95
2022-08-16T22:11:06.769Z,71.65
2022-08-16T22:13:57.735Z,71.98
2022-08-16T22:17:01.608Z,71.23
2022-08-16T22:20:06.078Z,72.04
2022-08-16T22:23:14.968Z,72.35
2022-08-16T22:26:17.260Z,71.62
2022-08-16T22:29:19.654Z,72.37
2022-08-16T22:32:22.168Z,71.49
2022-08-16T22:35:24.345Z,72.06
2022-08-16T22:38:56.271Z,72.63
2022-08-16T22:41:50.545Z,71.95
2022-08-16T22:44:52.644Z,72.61
2022-08-16T22:47:55.082Z,71.76
2022-08-16T22:50:57.215Z,71.51
2022-08-16T22:53:59.495Z,71.30
2022-08-16T22:57:01.708Z,71.28
2022-08-16T23:00:06.096Z,71.62
2022-08-16T23:03:16.491Z,71.55
2022-08-16T23:06:18.633Z,71.13
2022-08-16T23:09:21.135Z,71.50
2022-08-16T23:12:26.239Z,71.32
2022-08-16T23:15:47.363Z,71.39
2022-08-16T23:18:54.056Z,71.35
2022-08-16T23:21:58.120Z,71.61
2022-08-16T23:25:00.225Z,71.30
2022-08-16T23:28:03.700Z,72.12
2022-08-16T23:31:07.226Z,71.61
2022-08-16T23:34:09.229Z,72.21
2022-08-16T23:37:11.215Z,71.50
2022-08-16T23:40:13.295Z,72.10
2022-08-16T23:43:18.633Z,72.10
2022-08-16T23:46:20.659Z,71.35
2022-08-16T23:49:59.494Z,71.01
2022-08-16T23:52:59.276Z,71.77
2022-08-16T23:56:05.756Z,71.35
2022-08-16T23:59:08.005Z,70.77
